Time;durP1;ratioP1;P1;durP2;ratioP2;P2;SDS_P1;SDS_P2;PMS_P1;PMS_P2;Temp;Humidity;BMP_temperature;BMP_pressure;BME280_temperature;BME280_humidity;BME280_pressure;Samples;Min_cycle;Max_cycle;Signal;HPM_P1;HPM_P2
2022/08/30 00:03:09;;;;;;;12.73;12.10;;;22.10;25.20;;;;;;5055922;28;20444;-43
2022/08/30 00:05:35;;;;;;;13.10;12.50;;;22.10;25.00;;;;;;5037565;28;20498;-44
2022/08/30 00:08:01;;;;;;;13.47;12.57;;;22.10;25.20;;;;;;5037589;28;20778;-45
2022/08/30 00:10:28;;;;;;;13.03;12.23;;;22.00;25.30;;;;;;5055311;28;20407;-44
2022/08/30 00:12:55;;;;;;;12.60;11.80;;;22.00;25.50;;;;;;5037352;28;20624;-46
2022/08/30 00:15:22;;;;;;;12.90;12.20;;;22.10;25.40;;;;;;5037436;28;20434;-44
2022/08/30 00:17:47;;;;;;;13.37;12.47;;;22.00;25.70;;;;;;5037415;28;20968;-45
2022/08/30 00:20:17;;;;;;;13.07;12.37;;;22.00;25.70;;;;;;5037276;28;20446;-49
2022/08/30 00:22:43;;;;;;;13.33;12.70;;;22.00;25.70;;;;;;5037678;28;20186;-46
2022/08/30 00:25:11;;;;;;;13.23;12.50;;;22.00;25.70;;;;;;5037432;28;20462;-44
2022/08/30 00:27:37;;;;;;;13.47;12.63;;;22.00;25.90;;;;;;5037735;28;20497;-48
2022/08/30 00:30:04;;;;;;;12.87;12.17;;;22.00;25.90;;;;;;5037643;28;20428;-46
2022/08/30 00:32:30;;;;;;;12.50;11.70;;;22.00;25.90;;;;;;5055546;28;20454;-51
2022/08/30 00:34:56;;;;;;;13.03;12.30;;;22.00;26.10;;;;;;5037591;28;20473;-44
2022/08/30 00:37:22;;;;;;;12.60;12.00;;;21.90;26.10;;;;;;5037612;28;20218;-44
2022/08/30 00:39:48;;;;;;;14.10;13.30;;;21.90;26.10;;;;;;5055393;28;20168;-44
2022/08/30 00:42:14;;;;;;;12.93;12.33;;;21.90;26.20;;;;;;5037101;28;20501;-44
2022/08/30 00:44:41;;;;;;;14.53;13.83;;;21.90;26.30;;;;;;5036871;28;20415;-45
2022/08/30 00:47:07;;;;;;;13.63;12.63;;;21.90;26.40;;;;;;5036940;28;20438;-45
2022/08/30 00:49:35;;;;;;;13.17;12.47;;;21.90;26.30;;;;;;5036402;28;20910;-44
2022/08/30 00:52:02;;;;;;;13.73;12.53;;;21.90;26.40;;;;;;5036601;28;20418;-46
2022/08/30 00:54:29;;;;;;;12.40;11.80;;;21.90;26.90;;;;;;5036787;28;20470;-49
2022/08/30 00:56:55;;;;;;;12.70;12.00;;;21.80;27.10;;;;;;5036487;28;20981;-48
2022/08/30 00:59:23;;;;;;;13.00;12.40;;;21.80;27.00;;;;;;5036636;28;20497;-45
2022/08/30 01:01:50;;;;;;;14.20;13.40;;;21.80;26.90;;;;;;5036396;28;20452;-47
2022/08/30 01:04:18;;;;;;;13.60;12.90;;;21.80;26.80;;;;;;5036471;28;20774;-59
2022/08/30 01:06:44;;;;;;;13.27;12.67;;;21.80;26.70;;;;;;5036388;28;20831;-60
2022/08/30 01:09:11;;;;;;;13.57;12.77;;;21.80;26.80;;;;;;5036349;28;20775;-60
2022/08/30 01:11:38;;;;;;;13.37;12.57;;;21.80;26.90;;;;;;5036227;28;20473;-59
2022/08/30 01:14:05;;;;;;;13.47;12.57;;;21.70;27.00;;;;;;5036308;28;20417;-61
2022/08/30 01:16:32;;;;;;;13.53;12.80;;;21.70;27.00;;;;;;5036192;28;20790;-60
2022/08/30 01:18:59;;;;;;;13.53;12.50;;;21.70;26.90;;;;;;5036082;28;20414;-60
2022/08/30 01:21:53;;;;;;;12.77;11.93;;;21.70;27.00;;;;;;5036041;28;20424;-60
2022/08/30 01:24:19;;;;;;;13.33;12.53;;;21.70;26.90;;;;;;5036381;28;20418;-60
2022/08/30 01:26:45;;;;;;;13.90;13.00;;;21.70;27.00;;;;;;5053901;28;20461;-44
2022/08/30 01:29:21;;;;;;;12.97;12.33;;;21.70;27.00;;;;;;5036031;28;20410;-47
2022/08/30 01:31:48;;;;;;;13.57;12.87;;;21.60;26.70;;;;;;5035858;28;20171;-46
2022/08/30 01:34:13;;;;;;;13.23;12.33;;;21.60;26.90;;;;;;5035741;28;20855;-50
2022/08/30 01:36:43;;;;;;;13.63;12.93;;;21.50;27.00;;;;;;5053946;28;20496;-44
2022/08/30 01:39:10;;;;;;;13.57;12.50;;;21.50;27.10;;;;;;5035809;28;20276;-49
2022/08/30 01:41:35;;;;;;;14.43;13.20;;;21.50;27.10;;;;;;5035666;28;20406;-45
2022/08/30 01:44:06;;;;;;;13.30;12.60;;;21.50;27.40;;;;;;5035571;28;20437;-49
2022/08/30 01:46:37;;;;;;;12.53;11.83;;;21.50;27.40;;;;;;5035899;28;20212;-46
2022/08/30 01:49:07;;;;;;;13.33;12.70;;;21.50;27.40;;;;;;5035624;28;20411;-44
2022/08/30 01:51:33;;;;;;;14.53;13.50;;;21.50;27.60;;;;;;5035368;28;20410;-44
2022/08/30 01:53:59;;;;;;;13.63;12.80;;;21.50;27.70;;;;;;5035625;28;20442;-44
2022/08/30 01:56:27;;;;;;;14.00;13.20;;;21.50;27.90;;;;;;5035557;28;20433;-47
2022/08/30 01:58:53;;;;;;;14.50;13.43;;;21.50;27.90;;;;;;5035555;28;20433;-47
2022/08/30 02:01:22;;;;;;;14.00;13.10;;;21.40;27.90;;;;;;5034331;28;20433;-44
2022/08/30 02:03:48;;;;;;;13.53;12.43;;;21.50;27.60;;;;;;5035512;28;20415;-44
2022/08/30 02:06:16;;;;;;;13.33;12.53;;;21.40;27.30;;;;;;5035234;28;20461;-48
2022/08/30 02:08:43;;;;;;;14.03;13.20;;;21.40;27.10;;;;;;5035120;28;20535;-43
2022/08/30 02:11:10;;;;;;;14.63;13.83;;;21.30;27.20;;;;;;5035089;28;20910;-45
2022/08/30 02:13:36;;;;;;;13.47;12.67;;;21.30;27.60;;;;;;5035310;28;20540;-44
2022/08/30 02:16:07;;;;;;;14.17;13.27;;;21.30;27.90;;;;;;5035061;28;20421;-44
2022/08/30 02:18:34;;;;;;;13.40;12.80;;;21.30;28.00;;;;;;5035010;28;20418;-60
2022/08/30 02:21:00;;;;;;;13.63;12.93;;;21.30;28.10;;;;;;5035251;28;20430;-59
2022/08/30 02:23:26;;;;;;;14.63;13.93;;;21.30;28.20;;;;;;5035368;28;20419;-59
2022/08/30 02:25:52;;;;;;;13.83;12.97;;;21.30;28.20;;;;;;5035372;28;20846;-44
2022/08/30 02:28:19;;;;;;;13.50;12.93;;;21.30;28.20;;;;;;5035012;28;20410;-45
2022/08/30 02:30:45;;;;;;;14.13;13.33;;;21.30;28.20;;;;;;5034864;28;20499;-59
2022/08/30 02:33:11;;;;;;;14.03;13.33;;;21.30;28.20;;;;;;5034896;28;20894;-59
2022/08/30 02:35:37;;;;;;;14.53;13.67;;;21.30;28.30;;;;;;5034860;28;20430;-60
2022/08/30 02:38:03;;;;;;;14.03;13.10;;;21.00;29.30;;;;;;5034845;28;20210;-59
2022/08/30 02:40:29;;;;;;;14.87;14.03;;;20.80;30.00;;;;;;5034615;28;20543;-59
2022/08/30 02:42:55;;;;;;;14.30;13.50;;;20.60;30.30;;;;;;5034622;28;20422;-60
2022/08/30 02:45:22;;;;;;;15.10;14.20;;;20.60;30.40;;;;;;5034539;28;20207;-60
2022/08/30 02:47:47;;;;;;;14.60;13.90;;;20.60;30.40;;;;;;5034658;28;20407;-58
2022/08/30 02:50:14;;;;;;;13.83;13.13;;;20.60;30.40;;;;;;5034350;28;20479;-60
2022/08/30 02:52:41;;;;;;;19.40;13.97;;;20.70;30.30;;;;;;5034439;28;20176;-60
2022/08/30 02:55:07;;;;;;;15.23;14.43;;;20.80;30.00;;;;;;5034362;28;20426;-59
2022/08/30 02:57:33;;;;;;;15.33;14.53;;;20.80;29.90;;;;;;5034634;28;20426;-60
2022/08/30 03:00:00;;;;;;;14.80;14.00;;;20.90;29.70;;;;;;5034245;28;20414;-59
2022/08/30 03:02:26;;;;;;;15.60;14.63;;;20.90;29.50;;;;;;5034390;28;20448;-60
2022/08/30 03:04:52;;;;;;;15.53;14.63;;;21.00;29.60;;;;;;5034375;28;20419;-44
2022/08/30 03:07:18;;;;;;;14.53;13.73;;;21.00;29.30;;;;;;5034426;28;20410;-45
2022/08/30 03:09:44;;;;;;;16.20;15.30;;;21.00;29.10;;;;;;5034346;28;20501;-45
2022/08/30 03:12:11;;;;;;;14.13;13.50;;;21.00;29.10;;;;;;5033733;28;20798;-59
2022/08/30 03:14:37;;;;;;;15.93;15.03;;;21.00;29.10;;;;;;5034151;28;20521;-60
2022/08/30 03:17:05;;;;;;;16.83;15.20;;;21.10;29.30;;;;;;5034075;28;20411;-59
2022/08/30 03:19:30;;;;;;;14.87;14.03;;;21.10;29.30;;;;;;5034127;28;20937;-60
2022/08/30 03:21:56;;;;;;;15.40;14.50;;;21.00;29.20;;;;;;5033781;28;20422;-59
2022/08/30 03:24:21;;;;;;;16.17;14.90;;;20.80;30.00;;;;;;5033976;28;20186;-60
2022/08/30 03:26:47;;;;;;;14.80;14.00;;;20.60;30.40;;;;;;5051974;28;20203;-60
2022/08/30 03:29:13;;;;;;;15.07;14.17;;;20.70;30.50;;;;;;5017590;28;20184;-60
2022/08/30 03:31:38;;;;;;;16.23;15.00;;;20.70;30.50;;;;;;5033829;28;20226;-59
2022/08/30 03:34:04;;;;;;;15.70;15.00;;;20.70;30.50;;;;;;5033774;28;20176;-59
2022/08/30 03:36:31;;;;;;;15.40;14.50;;;20.70;30.50;;;;;;5034059;28;20187;-60
2022/08/30 03:38:56;;;;;;;15.27;14.57;;;20.80;30.50;;;;;;5033648;28;20180;-60
2022/08/30 03:41:23;;;;;;;16.70;15.80;;;20.80;30.50;;;;;;5033473;28;20886;-60
2022/08/30 03:43:49;;;;;;;16.03;15.13;;;20.80;30.50;;;;;;5033953;28;20191;-59
2022/08/30 03:46:15;;;;;;;15.87;15.07;;;20.80;30.20;;;;;;5033770;28;20458;-61
2022/08/30 03:48:41;;;;;;;15.37;14.63;;;20.90;30.00;;;;;;5033778;28;20406;-60
2022/08/30 03:51:07;;;;;;;16.30;15.40;;;20.90;29.90;;;;;;5033455;28;20543;-60
2022/08/30 03:53:33;;;;;;;16.43;15.50;;;20.90;30.00;;;;;;5033906;28;20422;-61
2022/08/30 03:55:58;;;;;;;16.77;15.77;;;20.90;30.00;;;;;;5033763;28;20179;-58
2022/08/30 03:58:24;;;;;;;16.13;15.20;;;20.90;30.30;;;;;;5033813;28;20440;-60
2022/08/30 04:00:50;;;;;;;14.97;14.27;;;20.90;30.50;;;;;;5033521;28;20179;-60
2022/08/30 04:03:17;;;;;;;16.23;15.43;;;20.90;30.60;;;;;;5033653;28;20191;-61
2022/08/30 04:05:44;;;;;;;16.53;15.63;;;20.80;30.50;;;;;;5033531;28;20214;-60
2022/08/30 04:08:09;;;;;;;15.90;15.00;;;20.80;30.50;;;;;;5033566;28;20809;-60
2022/08/30 04:10:35;;;;;;;15.17;14.47;;;20.80;30.50;;;;;;5033385;28;20425;-60
2022/08/30 04:13:01;;;;;;;17.17;16.07;;;20.80;30.50;;;;;;5033516;28;20538;-60
2022/08/30 04:15:26;;;;;;;17.37;16.27;;;20.80;30.60;;;;;;5033283;28;20533;-60
2022/08/30 04:17:53;;;;;;;16.70;15.70;;;20.80;30.50;;;;;;5033700;28;20176;-60
2022/08/30 04:20:20;;;;;;;17.13;16.23;;;20.70;30.50;;;;;;5033422;28;20184;-60
2022/08/30 04:22:46;;;;;;;16.77;15.87;;;20.60;30.90;;;;;;5033216;28;20899;-60
2022/08/30 04:25:12;;;;;;;16.20;15.20;;;20.60;31.10;;;;;;5035100;28;20829;-60
2022/08/30 04:27:38;;;;;;;17.30;16.20;;;20.60;31.80;;;;;;5037099;28;20406;-60
2022/08/30 04:30:04;;;;;;;16.80;15.90;;;20.60;31.10;;;;;;5036834;28;20474;-60
2022/08/30 04:32:32;;;;;;;17.03;15.93;;;20.70;30.80;;;;;;5037228;28;20180;-60
2022/08/30 04:34:58;;;;;;;16.00;15.20;;;20.70;30.70;;;;;;5036795;28;20442;-60
2022/08/30 04:37:24;;;;;;;16.47;15.33;;;20.70;30.50;;;;;;5036947;28;20930;-61
2022/08/30 04:39:54;;;;;;;16.07;15.27;;;20.70;31.50;;;;;;5037034;28;20180;-59
2022/08/30 04:42:19;;;;;;;16.30;15.40;;;20.70;30.50;;;;;;5036871;28;20418;-61
2022/08/30 04:44:45;;;;;;;16.70;15.87;;;20.70;30.60;;;;;;5036931;28;20417;-61
2022/08/30 04:47:11;;;;;;;15.83;14.80;;;20.70;30.60;;;;;;5036475;28;20247;-45
2022/08/30 04:49:36;;;;;;;17.30;16.20;;;20.70;31.20;;;;;;5036903;28;20263;-45
2022/08/30 04:52:04;;;;;;;16.13;15.23;;;20.70;31.00;;;;;;5036285;28;20176;-47
2022/08/30 04:54:29;;;;;;;17.13;16.23;;;20.70;31.30;;;;;;5036578;28;20246;-61
2022/08/30 04:56:55;;;;;;;17.87;16.97;;;20.70;31.00;;;;;;5036586;28;20506;-46
2022/08/30 04:59:20;;;;;;;17.10;16.20;;;20.70;31.10;;;;;;5036382;28;20649;-61
2022/08/30 05:01:47;;;;;;;16.73;15.80;;;20.70;30.90;;;;;;5036644;28;20271;-61
2022/08/30 05:04:14;;;;;;;19.30;18.10;;;20.70;30.90;;;;;;5036751;28;20179;-60
2022/08/30 05:06:40;;;;;;;18.50;17.40;;;20.40;32.10;;;;;;5036443;28;21045;-60
2022/08/30 05:09:06;;;;;;;18.77;17.57;;;20.20;33.60;;;;;;5036248;28;20429;-60
2022/08/30 05:11:32;;;;;;;17.90;16.90;;;19.90;34.10;;;;;;5036399;28;20422;-49
2022/08/30 05:13:58;;;;;;;18.20;17.03;;;19.80;35.00;;;;;;5036428;28;20176;-47
2022/08/30 05:16:23;;;;;;;18.90;17.30;;;19.80;35.00;;;;;;5036443;28;20418;-46
2022/08/30 05:18:50;;;;;;;18.53;17.33;;;19.90;34.60;;;;;;5036443;28;20210;-47
2022/08/30 05:21:19;;;;;;;18.67;17.57;;;19.90;34.80;;;;;;5035620;28;20190;-45
2022/08/30 05:23:46;;;;;;;19.07;17.77;;;19.80;35.00;;;;;;5036542;28;20414;-59
2022/08/30 05:26:24;;;;;;;17.20;16.30;;;19.70;34.90;;;;;;5036298;28;20462;-60
2022/08/30 05:28:49;;;;;;;19.00;17.90;;;19.60;35.60;;;;;;5036106;28;20414;-60
2022/08/30 05:31:30;;;;;;;17.23;16.43;;;19.70;34.60;;;;;;5035587;28;20477;-60
2022/08/30 05:33:57;;;;;;;18.30;17.00;;;19.80;34.70;;;;;;5035775;28;20222;-60
2022/08/30 05:36:26;;;;;;;16.77;15.87;;;19.80;34.50;;;;;;5035584;28;20460;-60
2022/08/30 05:38:52;;;;;;;18.50;17.40;;;20.00;33.90;;;;;;5036095;28;20502;-58
2022/08/30 05:41:20;;;;;;;18.77;17.57;;;20.10;33.40;;;;;;5035381;28;20704;-60
2022/08/30 05:43:46;;;;;;;16.53;15.83;;;20.10;33.90;;;;;;5035737;28;20493;-60
2022/08/30 05:46:14;;;;;;;18.97;17.80;;;20.20;33.90;;;;;;5035595;28;20462;-60
2022/08/30 05:48:40;;;;;;;18.47;17.17;;;20.30;33.70;;;;;;5035556;28;20853;-60
2022/08/30 05:51:10;;;;;;;18.83;17.63;;;20.40;33.60;;;;;;5035219;28;20419;-60
2022/08/30 05:53:36;;;;;;;17.50;16.60;;;20.50;33.00;;;;;;5035271;28;20180;-60
2022/08/30 05:56:04;;;;;;;18.10;16.97;;;20.40;32.10;;;;;;5035646;28;20422;-58
2022/08/30 05:58:31;;;;;;;18.70;17.13;;;20.30;32.60;;;;;;5035259;28;20506;-60
2022/08/30 06:00:57;;;;;;;17.70;16.60;;;20.30;33.10;;;;;;5034938;28;20422;-60
2022/08/30 06:03:23;;;;;;;16.47;15.57;;;20.40;33.10;;;;;;5045513;28;20433;-60
2022/08/30 06:05:49;;;;;;;17.17;16.20;;;20.50;32.90;;;;;;5054339;28;20572;-60
2022/08/30 06:08:15;;;;;;;18.37;17.13;;;20.50;32.30;;;;;;5051852;28;20450;-47
2022/08/30 06:10:40;;;;;;;18.50;17.50;;;20.60;32.20;;;;;;5053292;28;20193;-60
2022/08/30 06:13:06;;;;;;;18.57;17.20;;;20.70;32.30;;;;;;5053240;28;20172;-45
2022/08/30 06:15:32;;;;;;;18.67;17.57;;;20.60;32.10;;;;;;5053352;28;20661;-60
2022/08/30 06:17:57;;;;;;;19.40;18.20;;;20.60;32.00;;;;;;5053268;28;20270;-59
2022/08/30 06:20:23;;;;;;;18.07;17.00;;;20.50;32.20;;;;;;5053219;28;20603;-61
2022/08/30 06:22:49;;;;;;;19.93;18.70;;;20.40;32.50;;;;;;5055055;28;20627;-60
2022/08/30 06:25:15;;;;;;;20.40;19.07;;;20.30;33.40;;;;;;5049276;28;20526;-58
2022/08/30 06:27:42;;;;;;;20.57;19.13;;;20.40;33.80;;;;;;5047071;28;20188;-60
2022/08/30 06:30:09;;;;;;;20.70;19.50;;;20.40;33.40;;;;;;5050727;28;20917;-60
2022/08/30 06:32:36;;;;;;;20.93;19.60;;;20.40;34.50;;;;;;5051769;28;20421;-46
2022/08/30 06:35:06;;;;;;;21.90;19.87;;;20.30;34.30;;;;;;5054371;28;20543;-45
2022/08/30 06:37:32;;;;;;;22.40;20.63;;;20.20;35.30;;;;;;5073196;28;20412;-60
2022/08/30 06:39:59;;;;;;;22.00;20.77;;;20.20;35.10;;;;;;5053125;28;20420;-59
2022/08/30 06:42:30;;;;;;;21.40;20.00;;;20.20;35.30;;;;;;5053848;28;20413;-57
2022/08/30 06:45:00;;;;;;;20.07;18.87;;;20.30;34.90;;;;;;5052085;28;20464;-60
2022/08/30 06:47:28;;;;;;;21.57;20.17;;;20.40;34.60;;;;;;5040350;28;20449;-60
2022/08/30 06:49:53;;;;;;;20.30;18.80;;;20.40;34.20;;;;;;5038312;28;20496;-60
2022/08/30 06:52:19;;;;;;;20.33;19.03;;;20.40;34.00;;;;;;5021834;28;20450;-58
2022/08/30 06:54:45;;;;;;;18.57;17.40;;;20.50;34.20;;;;;;5021818;28;20224;-59
2022/08/30 06:57:11;;;;;;;18.37;17.37;;;20.60;34.40;;;;;;5022480;28;20227;-59
2022/08/30 06:59:37;;;;;;;19.20;18.00;;;20.70;33.80;;;;;;5022330;28;20457;-60
2022/08/30 07:02:05;;;;;;;20.30;19.00;;;20.80;33.30;;;;;;5022092;28;20470;-60
2022/08/30 07:04:31;;;;;;;20.10;18.70;;;20.80;33.40;;;;;;5022281;28;20501;-59
2022/08/30 07:06:56;;;;;;;20.50;19.20;;;20.80;32.80;;;;;;5040246;28;20462;-59
2022/08/30 07:09:22;;;;;;;19.67;17.90;;;20.80;32.90;;;;;;5022474;28;20680;-59
2022/08/30 07:11:48;;;;;;;17.77;16.67;;;20.80;33.20;;;;;;5041721;28;20289;-60
2022/08/30 07:14:13;;;;;;;18.43;17.30;;;20.80;34.00;;;;;;5041798;28;20759;-59
2022/08/30 07:16:39;;;;;;;19.30;18.00;;;20.90;33.60;;;;;;5040047;28;20250;-58
2022/08/30 07:19:05;;;;;;;20.20;18.77;;;20.90;33.10;;;;;;5041719;28;20254;-58
2022/08/30 07:21:43;;;;;;;19.37;18.17;;;21.00;32.70;;;;;;5042078;28;20587;-59
2022/08/30 07:24:10;;;;;;;20.73;19.30;;;21.10;33.10;;;;;;5023402;28;20456;-59
2022/08/30 07:26:40;;;;;;;18.97;17.77;;;21.00;32.50;;;;;;5020926;28;20458;-45
2022/08/30 07:29:07;;;;;;;19.13;18.13;;;21.00;32.50;;;;;;5021618;28;20533;-45
2022/08/30 07:31:34;;;;;;;20.50;19.30;;;21.10;32.40;;;;;;5022041;28;20500;-43
2022/08/30 07:34:01;;;;;;;20.67;19.20;;;21.20;32.30;;;;;;5022156;28;20450;-46
2022/08/30 07:36:26;;;;;;;19.03;17.83;;;21.30;32.10;;;;;;5037225;28;20465;-47
2022/08/30 07:38:53;;;;;;;20.37;19.00;;;21.30;31.50;;;;;;5041817;28;20816;-44
2022/08/30 07:41:20;;;;;;;19.30;18.13;;;21.40;31.10;;;;;;5039552;28;20237;-43
2022/08/30 07:43:46;;;;;;;21.03;19.27;;;21.40;31.10;;;;;;5027675;28;20481;-43
2022/08/30 07:46:12;;;;;;;19.57;18.43;;;21.40;31.10;;;;;;5021268;28;20981;-45
2022/08/30 07:48:38;;;;;;;19.40;18.30;;;21.40;31.10;;;;;;5020618;28;20231;-45
2022/08/30 07:51:07;;;;;;;22.03;19.70;;;21.50;31.20;;;;;;5021313;28;20244;-47
2022/08/30 07:53:33;;;;;;;18.27;17.00;;;21.60;31.20;;;;;;5036354;28;20231;-50
2022/08/30 07:55:58;;;;;;;20.40;19.10;;;21.60;30.50;;;;;;5041492;28;20445;-47
2022/08/30 07:58:24;;;;;;;19.17;17.93;;;21.60;30.10;;;;;;5038240;28;20238;-50
2022/08/30 08:00:49;;;;;;;18.03;16.83;;;21.70;30.20;;;;;;5024518;28;20235;-50
2022/08/30 08:03:15;;;;;;;18.57;17.37;;;21.80;30.20;;;;;;5024806;28;20239;-47
2022/08/30 08:05:43;;;;;;;18.40;17.40;;;21.80;30.40;;;;;;5025163;28;20262;-45
2022/08/30 08:08:10;;;;;;;19.60;18.30;;;21.90;30.10;;;;;;5035210;28;21114;-50
2022/08/30 08:10:38;;;;;;;18.63;17.33;;;22.00;30.00;;;;;;5044318;28;21172;-49
2022/08/30 08:13:04;;;;;;;18.57;17.30;;;22.00;29.90;;;;;;5045151;28;20450;-47
2022/08/30 08:15:29;;;;;;;18.00;17.00;;;22.10;29.80;;;;;;5044496;28;20818;-43
2022/08/30 08:17:55;;;;;;;17.93;16.90;;;22.10;29.70;;;;;;5044255;28;20250;-48
2022/08/30 08:20:21;;;;;;;17.87;16.87;;;22.20;29.30;;;;;;5045025;28;20215;-46
2022/08/30 08:22:47;;;;;;;18.10;17.10;;;22.20;29.10;;;;;;5041366;28;20357;-46
2022/08/30 08:25:13;;;;;;;18.53;17.43;;;22.30;28.80;;;;;;5031799;28;20537;-42
2022/08/30 08:27:40;;;;;;;17.83;16.90;;;22.40;28.70;;;;;;5034184;28;20376;-46
2022/08/30 08:30:06;;;;;;;18.03;16.93;;;22.50;28.70;;;;;;5043899;28;20624;-59
2022/08/30 08:32:32;;;;;;;19.67;18.20;;;22.60;28.60;;;;;;5044038;28;20598;-57
2022/08/30 08:34:57;;;;;;;17.23;16.03;;;22.60;28.30;;;;;;5044197;28;20846;-57
2022/08/30 08:37:23;;;;;;;18.17;16.90;;;22.70;28.10;;;;;;5043351;28;20550;-59
2022/08/30 08:39:51;;;;;;;18.83;17.50;;;22.80;27.90;;;;;;5044728;28;20254;-59
2022/08/30 08:42:30;;;;;;;18.43;17.07;;;22.90;27.30;;;;;;5044098;28;20539;-45
2022/08/30 08:45:01;;;;;;;17.50;16.70;;;23.00;27.50;;;;;;5043240;28;20822;-44
2022/08/30 08:47:57;;;;;;;18.03;16.93;;;23.00;27.50;;;;;;5039834;28;20453;-46
2022/08/30 08:50:23;;;;;;;19.37;18.07;;;23.10;27.60;;;;;;5022792;28;20478;-45
2022/08/30 08:55:45;;;;;;;18.40;17.20;;;23.30;27.10;;;;;;5041665;28;20489;-60
2022/08/30 08:58:26;;;;;;;20.27;19.07;;;23.50;26.60;;;;;;5023097;28;20460;-63
2022/08/30 09:00:55;;;;;;;17.80;16.80;;;23.50;26.70;;;;;;5023767;28;20435;-60
2022/08/30 09:03:24;;;;;;;19.03;17.80;;;23.60;26.80;;;;;;5036325;28;20442;-58
2022/08/30 09:05:50;;;;;;;17.93;16.93;;;23.60;26.70;;;;;;5022088;28;20454;-60
2022/08/30 09:08:17;;;;;;;19.27;18.03;;;23.60;26.60;;;;;;5030869;28;20940;-58
2022/08/30 09:10:55;;;;;;;16.93;16.00;;;23.70;26.40;;;;;;5041463;28;20524;-58
2022/08/30 09:13:23;;;;;;;18.47;17.33;;;23.90;25.90;;;;;;5032628;28;20450;-59
2022/08/30 09:15:50;;;;;;;18.60;17.37;;;24.00;26.00;;;;;;5022755;28;20840;-60
2022/08/30 09:18:17;;;;;;;17.10;16.30;;;24.00;26.20;;;;;;5006623;28;20537;-60
2022/08/30 09:20:50;;;;;;;18.40;17.27;;;24.20;25.40;;;;;;5022665;28;20632;-59
2022/08/30 09:23:21;;;;;;;17.50;16.40;;;24.40;24.60;;;;;;5028756;28;20830;-59
2022/08/30 09:25:50;;;;;;;18.73;17.50;;;24.60;23.80;;;;;;5042458;28;20701;-59
2022/08/30 09:28:22;;;;;;;18.00;17.00;;;24.90;23.50;;;;;;5060822;28;20444;-43
2022/08/30 09:31:07;;;;;;;18.20;17.00;;;25.10;23.10;;;;;;5042799;28;20788;-48
2022/08/30 09:33:35;;;;;;;16.90;16.10;;;25.20;22.60;;;;;;5031732;28;20451;-46
2022/08/30 09:36:13;;;;;;;19.00;17.70;;;25.40;22.50;;;;;;5023035;28;21573;-45
2022/08/30 09:38:39;;;;;;;17.63;16.73;;;25.50;22.10;;;;;;5023016;28;20580;-44
2022/08/30 09:41:27;;;;;;;16.57;15.70;;;25.60;21.30;;;;;;5023234;28;20573;-45
2022/08/30 09:44:07;;;;;;;18.10;17.10;;;25.80;21.80;;;;;;5022847;28;20224;-46
2022/08/30 09:46:33;;;;;;;16.57;15.77;;;26.00;20.40;;;;;;5022964;28;20505;-50
2022/08/30 09:48:58;;;;;;;17.17;16.10;;;26.10;20.50;;;;;;5022682;28;21170;-50
2022/08/30 09:51:45;;;;;;;18.70;17.80;;;26.10;20.30;;;;;;5022138;28;20451;-49
2022/08/30 09:54:24;;;;;;;16.93;16.03;;;26.20;20.10;;;;;;5021786;28;20289;-46
2022/08/30 09:57:11;;;;;;;16.70;15.80;;;26.20;20.20;;;;;;5032324;28;20912;-45
2022/08/30 10:00:04;;;;;;;15.27;14.57;;;26.30;20.10;;;;;;5042611;28;20919;-48
2022/08/30 10:02:44;;;;;;;16.00;15.00;;;26.30;19.90;;;;;;5042729;28;20454;-49
2022/08/30 10:05:46;;;;;;;16.83;15.73;;;26.50;19.90;;;;;;5041844;28;20491;-54
2022/08/30 10:08:17;;;;;;;16.83;15.80;;;26.60;18.80;;;;;;5040476;28;20960;-52
2022/08/30 10:10:46;;;;;;;16.37;15.50;;;26.70;19.10;;;;;;5041786;28;20429;-46
2022/08/30 10:13:43;;;;;;;15.93;15.03;;;26.80;18.50;;;;;;5041310;28;20441;-51
2022/08/30 10:16:11;;;;;;;24.90;22.60;;;26.90;18.30;;;;;;5041709;28;20438;-47
2022/08/30 10:18:54;;;;;;;17.40;16.50;;;27.00;18.50;;;;;;5042089;28;20449;-47
2022/08/30 10:21:39;;;;;;;16.50;15.40;;;27.00;18.20;;;;;;5040535;28;20534;-47
2022/08/30 10:24:12;;;;;;;16.80;15.70;;;27.10;18.40;;;;;;5040208;28;20448;-46
2022/08/30 10:26:49;;;;;;;16.93;16.17;;;27.10;18.30;;;;;;5040224;28;20458;-51
2022/08/30 10:29:40;;;;;;;16.57;15.70;;;27.10;18.40;;;;;;5025721;28;21023;-47
2022/08/30 10:32:22;;;;;;;17.60;16.60;;;27.10;18.30;;;;;;5032220;28;20461;-51
2022/08/30 10:34:48;;;;;;;15.73;15.03;;;27.20;17.60;;;;;;5058355;28;20824;-47
2022/08/30 10:37:30;;;;;;;16.80;15.90;;;27.20;17.60;;;;;;5041466;28;20544;-46
2022/08/30 10:41:11;;;;;;;17.03;16.23;;;27.20;17.60;;;;;;5040522;28;20821;-51
2022/08/30 10:42:48;;;;;;;17.23;16.33;;;27.20;17.60;;;;;;5058616;28;20858;-52
2022/08/30 10:45:15;;;;;;;16.67;15.87;;;27.30;17.40;;;;;;5039971;28;20457;-47
2022/08/30 10:47:49;;;;;;;16.23;15.33;;;27.30;16.20;;;;;;5041074;28;20441;-46
2022/08/30 10:50:19;;;;;;;15.97;15.27;;;27.30;16.20;;;;;;5040959;28;20542;-46
2022/08/30 10:53:02;;;;;;;18.43;17.53;;;27.30;14.30;;;;;;5040749;28;20442;-46
2022/08/30 10:55:34;;;;;;;17.23;16.23;;;27.30;13.60;;;;;;5041313;28;20441;-46
2022/08/30 10:58:04;;;;;;;14.87;14.10;;;27.30;13.60;;;;;;5023667;28;20462;-50
2022/08/30 11:00:41;;;;;;;24.03;22.00;;;27.50;13.20;;;;;;5022999;28;20486;-47
2022/08/30 11:03:25;;;;;;;18.80;17.60;;;27.50;14.80;;;;;;5021214;28;20528;-50
2022/08/30 11:05:53;;;;;;;17.40;16.50;;;27.50;14.60;;;;;;5020972;28;20462;-45
2022/08/30 11:08:44;;;;;;;16.10;15.30;;;27.70;13.90;;;;;;5020597;28;20902;-45
2022/08/30 11:11:58;;;;;;;23.30;21.40;;;27.70;12.00;;;;;;5020341;28;20438;-47
2022/08/30 11:14:24;;;;;;;20.97;19.57;;;27.80;11.90;;;;;;4966487;28;20561;-45
2022/08/30 11:16:52;;;;;;;15.57;14.67;;;27.90;12.30;;;;;;5021095;28;20469;-47
2022/08/30 11:19:26;;;;;;;16.73;15.73;;;27.90;11.60;;;;;;5020920;28;20811;-49
2022/08/30 11:22:07;;;;;;;16.77;15.60;;;27.90;12.00;;;;;;5020858;28;20446;-46
2022/08/30 11:25:07;;;;;;;14.93;14.23;;;27.80;12.10;;;;;;5021232;28;20960;-43
2022/08/30 11:27:45;;;;;;;14.73;14.03;;;27.90;12.00;;;;;;5020330;28;20499;-49
2022/08/30 11:30:23;;;;;;;15.57;14.80;;;27.90;11.70;;;;;;5021346;28;20529;-45
2022/08/30 11:33:17;;;;;;;16.10;15.20;;;27.90;12.70;;;;;;5021447;28;20593;-44
2022/08/30 11:35:48;;;;;;;16.37;15.47;;;28.00;13.20;;;;;;4991848;28;20489;-51
2022/08/30 11:38:27;;;;;;;14.63;13.93;;;28.00;12.70;;;;;;5021570;28;21359;-46
2022/08/30 11:40:56;;;;;;;14.93;14.23;;;28.10;13.10;;;;;;5021324;28;20442;-51
2022/08/30 11:43:45;;;;;;;15.90;15.10;;;28.00;13.10;;;;;;5035678;28;20453;-48
2022/08/30 11:46:26;;;;;;;15.13;14.30;;;27.80;13.30;;;;;;5047301;28;20928;-59
2022/08/30 11:48:51;;;;;;;17.67;16.47;;;27.70;13.00;;;;;;5040310;28;20485;-58
2022/08/30 11:51:38;;;;;;;15.00;14.10;;;27.60;13.40;;;;;;5040985;28;20473;-59
2022/08/30 11:54:28;;;;;;;15.03;14.30;;;27.70;12.70;;;;;;5036268;28;20234;-60
2022/08/30 11:57:32;;;;;;;14.43;13.63;;;27.60;13.30;;;;;;5021605;28;20442;-60
2022/08/30 12:00:23;;;;;;;15.27;14.50;;;27.60;13.40;;;;;;5019954;28;20637;-60
2022/08/30 12:02:59;;;;;;;15.70;14.70;;;27.50;13.40;;;;;;5044889;28;20449;-60
2022/08/30 12:05:37;;;;;;;14.33;13.53;;;27.50;13.40;;;;;;5039319;28;20808;-58
2022/08/30 12:08:33;;;;;;;15.07;14.27;;;27.40;13.90;;;;;;5040148;28;20437;-58
2022/08/30 12:11:26;;;;;;;14.70;14.00;;;27.30;14.40;;;;;;5039190;28;20441;-59
2022/08/30 12:13:54;;;;;;;14.30;13.60;;;27.20;14.40;;;;;;5040059;28;21003;-60
2022/08/30 12:16:23;;;;;;;14.50;13.50;;;27.10;13.80;;;;;;5040880;28;20933;-60
2022/08/30 12:18:49;;;;;;;13.80;12.90;;;27.00;13.90;;;;;;5041123;28;20803;-60
2022/08/30 12:21:20;;;;;;;13.97;13.20;;;27.00;13.90;;;;;;5040389;28;20442;-60
2022/08/30 12:24:01;;;;;;;14.17;13.47;;;26.90;14.30;;;;;;5058803;28;20635;-46
2022/08/30 12:26:30;;;;;;;13.30;12.60;;;26.90;13.90;;;;;;5040727;28;20453;-49
2022/08/30 12:29:25;;;;;;;14.20;13.50;;;27.00;13.70;;;;;;5036293;28;20449;-48
2022/08/30 12:31:54;;;;;;;13.90;13.10;;;27.10;13.70;;;;;;5058307;28;20476;-47
2022/08/30 12:34:44;;;;;;;14.33;13.67;;;27.10;13.30;;;;;;5040321;28;20499;-44
2022/08/30 12:37:25;;;;;;;14.13;13.43;;;27.20;13.20;;;;;;5040715;28;20457;-46
2022/08/30 12:40:21;;;;;;;13.50;12.80;;;27.20;13.20;;;;;;5038685;28;20456;-60
2022/08/30 12:42:57;;;;;;;12.87;12.27;;;27.30;13.20;;;;;;5023808;28;20453;-60
2022/08/30 12:45:45;;;;;;;13.80;13.10;;;27.30;13.50;;;;;;5040404;28;20462;-60
2022/08/30 12:48:17;;;;;;;13.37;12.57;;;27.20;13.50;;;;;;5043606;28;20785;-49